x

8454000 - Providence, Ri (foxr1) Weather Station

1:18 - Tue 31st May 2016 All times are EDT. -4 hours from GMT.

  • Wind
    7mph, 9mph gusts
  • Sea Temp 62°f
  • Air Temp 71°f
  • Sea Pressure 1012.2mb
  • 8454000 - Providence, Ri
  • 8454000 - Providence, Ri

More Historic Weather Station data

Upgrade to MSW Pro to gain access to the past 30 days of data for over 8000 Wavebouys and Weather Stations around the globe.

Join Pro

Comparision Forecast

View Surf forecast
   
mar. 05/31 1:18 7 9 mph 1012.2mb 62f 71f
1:12 2 7 mph 1012.1mb 62f 71f
1:06 6 9 mph 1012mb 62f 71f
1:00 8 11 mph 1012mb 62f 71f
12:54 8 11 mph 1012.1mb 62f 71f
12:48 8 11 mph 1012.1mb 62f -
12:42 7 17 mph 1012.1mb 62f 71f
12:36 7 13 mph 1012.2mb 62f 71f
12:30 13 16 mph 1012.2mb 62f 71f
12:24 7 11 mph 1012.2mb 62f 71f
12:18 9 13 mph 1012.3mb 62f 71f
12:12 11 15 mph 1012.3mb 63f 71f
12:06 9 14 mph 1012.3mb 63f 71f
12:00 10 16 mph 1012.4mb 63f 71f
lun. 05/30 11:54 7 9 mph 1012.5mb 63f 71f
11:48 7 13 mph 1012.6mb 63f 71f
11:42 3 8 mph 1012.6mb 63f 71f
11:36 6 8 mph 1012.6mb 63f 71f
11:30 6 8 mph 1012.5mb 63f 71f
11:24 7 16 mph 1012.3mb 63f 71f
11:18  -  mph - 63f 71f
11:12  -  mph - 63f 71f
11:06  -  mph - 63f 71f
11:00  -  mph - 63f -
10:54  -  mph - 63f -
10:48  -  mph - 63f -
10:42  -  mph - 63f -
10:36  -  mph - 63f -
10:30 8 14 mph 1013.1mb 63f -
10:24 8 16 mph 1013.1mb 63f -
10:18  -  mph 1013.2mb 63f -
10:12  -  mph 1013.2mb 63f -
10:06  -  mph 1013.2mb 63f -
10:00  -  mph 1013.2mb 63f -
9:54  -  mph 1013.1mb 63f -
9:48 9 14 mph - - -
9:42 9 14 mph 1013mb 63f 71f
9:36 10 15 mph 1013mb 63f 71f
9:30 10 15 mph 1012.9mb 63f -
9:24 8 13 mph 1012.9mb 63f -
9:18  -  mph 1012.9mb 63f 72f
9:12  -  mph 1012.9mb 63f 72f
9:06  -  mph 1013mb 63f 72f
9:00  -  mph 1012.9mb 63f -
8:54  -  mph 1012.9mb 63f -
8:48  -  mph 1012.7mb 63f -
8:42  -  mph - 63f -
8:36  -  mph - 63f -
8:30  -  mph - 63f -
8:24  -  mph - 63f -
8:18  -  mph 1012.5mb 63f -
8:12  -  mph 1012.5mb 63f -
8:06  -  mph 1012.4mb 63f -
8:00  -  mph - 63f 72f
7:54  -  mph - 63f 72f
7:48  -  mph - 63f 72f
7:42  -  mph - 63f -
7:36  -  mph - 63f -
7:30  -  mph 1012.6mb 63f -
7:24  -  mph 1012.5mb 63f -
7:18  -  mph - 63f 72f
7:12  -  mph - 62f 72f
7:06  -  mph - 62f 72f
7:00  -  mph - 62f 72f
6:54  -  mph - 62f 72f
6:48  -  mph - 62f 72f
6:42  -  mph - 62f 73f
6:36  -  mph - 62f 73f
6:30 10 17 mph - 62f -
6:24 10 14 mph - 62f -
6:18  -  mph 1012.5mb 62f 73f
6:12  -  mph 1012.5mb 62f 73f
6:06  -  mph 1012.5mb 62f 73f
6:00  -  mph - 62f 73f
5:54  -  mph - 62f 73f
5:48  -  mph - 62f 71f
5:42  -  mph - 62f -
5:36  -  mph - 62f -
5:30 7 13 mph 1012.4mb 61f 74f
5:24 8 11 mph 1012.5mb 61f 74f
5:18 9 15 mph 1012.5mb 61f 74f
5:12 9 14 mph 1012.5mb 61f 74f
5:06 8 15 mph 1012.4mb 61f 74f
5:00 9 13 mph 1012.5mb 61f 74f
4:54 8 16 mph 1012.5mb 61f 74f
4:48 13 17 mph 1012.6mb 61f 74f
4:42 10 14 mph 1012.6mb 61f 74f
4:36 11 16 mph 1012.6mb 61f 74f
4:30 14 17 mph 1012.7mb 61f 74f
4:24 13 17 mph 1012.7mb 61f 74f
4:18 8 16 mph 1012.6mb 61f 74f
4:12 11 15 mph 1012.7mb 61f 74f
4:06 7 14 mph 1012.7mb 61f 74f
4:00 9 15 mph 1012.7mb 61f 74f
3:54 9 16 mph 1012.7mb 61f 73f
3:48 11 16 mph 1012.7mb 61f 73f
3:42 10 14 mph 1012.7mb 61f 73f
3:36 13 16 mph 1012.8mb 61f 73f
3:30 8 13 mph 1012.7mb 61f 73f
3:24 10 14 mph 1012.8mb 61f 72f
3:18 8 11 mph 1012.9mb 61f 70f
3:12 6 7 mph 1012.9mb 61f 68f
3:06 3 5 mph 1013mb 61f 68f
3:00 2
mph
1013.1mb 61f 68f
2:54 2 3 mph 1013.1mb 61f 67f
2:48 2
mph
1013.2mb 61f 67f
2:42 2
mph
1013.2mb 61f 67f
2:36  -  1 mph 1013.3mb 61f 67f
2:30  -  1 mph 1013.4mb 61f 67f
2:24  -  1 mph 1013.4mb 61f 67f
2:18  -  1 mph 1013.5mb 61f 67f
2:12  -  1 mph 1013.5mb 61f 66f
2:06  -  1 mph 1013.5mb 62f 66f
2:00 1
mph
1013.5mb 62f 66f
1:54  -  2 mph 1013.5mb 62f 66f
1:48 1 2 mph 1013.5mb 62f 66f
1:36 2
mph
1013.6mb 62f 65f
1:30 2 3 mph 1013.7mb 62f 65f
1:24 2 3 mph 1013.8mb 62f 65f
1:18 3
mph
1013.8mb 62f 65f
1:12 2
mph
1013.9mb 62f 65f
1:06 2 3 mph 1013.9mb 62f 65f
1:00 3 6 mph 1014mb 62f 65f
12:54 5 6 mph 1014.1mb 62f 65f
12:48 5 6 mph 1014.1mb 62f 65f
12:42 5 6 mph 1014.2mb 62f 65f
12:36 6
mph
1014.2mb 62f 65f
12:30 6 7 mph 1014.2mb 62f 65f
12:24 7
mph
1014.2mb 62f 65f
12:18 5 7 mph 1014.4mb 62f 65f
12:12  -  1 mph 1014.4mb 62f 64f
12:06 1 2 mph 1014.4mb 62f 64f
12:00  -  2 mph 1014.4mb 62f 64f
11:54 1 2 mph 1014.4mb 62f 64f
11:48 1 2 mph 1014.6mb 63f 63f
11:42 2
mph
1014.6mb 63f 63f
11:36 2
mph
1014.6mb 63f 63f
11:30 1 2 mph 1014.6mb 63f 62f
11:24 1 2 mph 1014.6mb 63f 62f
11:18 1 2 mph 1014.6mb 63f 62f
11:12 2 3 mph 1014.6mb 63f 62f
11:06 1 3 mph 1014.6mb 63f 61f
11:00 2
mph
1014.7mb 63f 61f
10:54 1 2 mph 1014.8mb 63f 61f
10:48 1 2 mph 1014.8mb 63f 61f
10:42  -  3 mph 1014.9mb 64f 60f
10:36 3
mph
1014.9mb 64f 60f
10:30  -  2 mph 1015mb 64f 60f
10:24 1 2 mph 1015.1mb 64f 60f
10:18 1 2 mph 1015.1mb 64f 60f
10:12 2 5 mph 1015.2mb 64f 60f
10:06 1 3 mph 1015.3mb 64f 60f
10:00 1 2 mph 1015.4mb 64f 59f
9:54 1 2 mph 1015.4mb 64f 59f
9:48 2 3 mph 1015.3mb 64f 59f
9:42 2 3 mph 1015.3mb 64f 59f
9:36 3
mph
1015.3mb 65f 59f
9:30 2 3 mph 1015.3mb 65f 59f
9:24 3 5 mph 1015.4mb 65f 58f
9:18 2 3 mph 1015.4mb 65f 58f
9:12 2 3 mph 1015.4mb 65f 59f
9:06 2 3 mph 1015.3mb 65f 58f
9:00 2 5 mph 1015.4mb 65f 59f
8:54 3 6 mph 1015.4mb 65f 58f
8:48 3 5 mph 1015.4mb 65f 58f
8:42 2 3 mph 1015.4mb 65f 58f
8:36 1 2 mph 1015.5mb 65f 58f
8:30 3
mph
1015.5mb 65f 58f
8:24 2 3 mph 1015.6mb 65f 58f
8:18 2 3 mph 1015.8mb 65f 58f
8:12  -  3 mph 1015.8mb 65f 58f
8:06 2
mph
1015.7mb 65f 58f
8:00  -  3 mph 1016mb 65f 58f
7:54  -  2 mph 1016mb 65f 57f
7:48 1 5 mph 1015.9mb 65f 57f
7:42 3 5 mph 1015.7mb 65f 57f
7:36 2 5 mph 1015.7mb 65f 57f
7:30 3 6 mph 1015.7mb 65f 57f
7:24 5 6 mph 1015.6mb 65f 57f
7:18 2 5 mph 1015.9mb 65f 57f
7:12 3
mph
1015.9mb 65f 57f
7:06 3 6 mph 1015.9mb 65f 57f
7:00 6 9 mph 1015.7mb 65f 58f
6:54 7 8 mph 1015.9mb 65f 57f
6:48 5 6 mph 1015.9mb 65f 57f
6:42 3 6 mph 1016.2mb 64f 57f
6:36 5 6 mph 1016mb 64f 57f
6:30 5 6 mph 1016.1mb 64f 58f
6:24 2 5 mph 1016.3mb 64f 57f
6:18 3 6 mph 1016.5mb 64f 57f
6:12 2 3 mph 1016.5mb 64f 57f
6:06 5 8 mph 1016.7mb 64f 58f
6:00 5 10 mph 1016.3mb 63f 58f
5:54 7 10 mph 1016.4mb 63f 58f
5:48 5 6 mph 1016mb 63f 57f
5:42 6 7 mph 1015.9mb 63f 57f
5:36 6 7 mph 1015.9mb 63f 57f
5:30 3 7 mph 1016mb 62f 57f
5:24 3 6 mph 1016.1mb 62f 57f
5:12 5 6 mph 1016.1mb 62f 57f
5:00 6 7 mph 1016.2mb 62f 57f
4:54 5 6 mph 1016.2mb 62f 57f
4:48 5 6 mph 1016.3mb 62f 57f
4:42 3 6 mph 1016.5mb 62f 57f
4:36 1 6 mph 1016.5mb 62f 57f
4:30 6
mph
1016.4mb 62f 57f
4:24 5 6 mph 1016.4mb 62f 57f
4:18 5 6 mph 1016.5mb 62f 57f
4:12 5 6 mph 1016.6mb 62f 56f
4:06 3 5 mph 1016.6mb 62f 56f
4:00 3 5 mph 1016.7mb 62f 56f
3:54 3 5 mph 1016.8mb 62f 57f
3:48 3 6 mph 1016.8mb 62f 56f
3:42 5 7 mph 1016.9mb 62f 57f
3:36 5 7 mph 1016.8mb 62f 57f
3:30 5 7 mph 1016.8mb 62f 56f
3:24 5 7 mph 1016.9mb 62f 57f
3:18 5 6 mph 1017mb 62f 57f
3:12 3 6 mph 1017.1mb 62f 57f
3:06 6 7 mph 1017.2mb 62f 57f
3:00 6 7 mph 1017.3mb 62f 57f
2:54 5 7 mph 1017.3mb 62f 57f
2:48 5 7 mph 1017.4mb 62f 57f
2:42 5 7 mph 1017.6mb 62f 56f
2:36 6
mph
1017.7mb 62f 56f
2:30 6 7 mph 1017.7mb 62f 57f
2:24 3 6 mph 1017.8mb 62f 57f
2:18 3 5 mph 1018mb 62f 56f
2:12 3 6 mph 1018mb 62f 56f
2:06 3 5 mph 1018mb 62f 56f
2:00 5 6 mph 1018.1mb 62f 56f
1:54 5 7 mph 1018.1mb 62f 56f
1:48  -  mph 1018.1mb 62f 57f
1:42  -  mph 1018.2mb 62f 57f
1:36  -  mph 1018.3mb 62f 56f
1:30 6 7 mph 1018.4mb 62f 57f
1:24 5 6 mph 1018.5mb 62f 56f
1:18 5 6 mph 1018.5mb 62f 56f
1:12 3 6 mph 1018.6mb 62f 56f
1:06 5 7 mph 1018.7mb 62f 56f
1:00 5 6 mph 1018.8mb 62f 57f
12:54 5 6 mph 1018.9mb 63f 57f
12:48 5
mph
1018.9mb 63f 57f
12:42 5 6 mph 1019mb 63f 57f
12:36 5 7 mph 1019mb 63f 57f
12:30 5 6 mph 1019.1mb 63f 57f
12:24 5 6 mph 1019.1mb 63f 57f
12:18 5 6 mph 1019.2mb 63f 57f
12:12 5 6 mph 1019.2mb 63f 57f
12:06 3 7 mph 1019.4mb 63f 57f
12:00 5 6 mph 1019.3mb 64f 57f
dim. 05/29 11:54 3 7 mph 1019.5mb 64f 57f
11:48  -  mph 1019.4mb 64f 57f
11:42  -  mph 1019.4mb 64f 57f
11:36  -  mph 1019.6mb 64f 57f
11:30 6 7 mph 1019.6mb 65f 57f
11:24 6 7 mph 1019.6mb 65f 57f
11:18 6 7 mph 1019.6mb 65f 57f
11:12  -  mph 1019.6mb 65f 57f
11:06  -  mph 1019.6mb 65f 57f
11:00  -  mph - 65f 58f
10:54  -  mph - 65f 58f
10:48 6 8 mph 1019.8mb 65f -
10:42 6 7 mph 1019.8mb 65f -
10:36 6 7 mph 1019.8mb 65f -
10:30  -  mph 1019.9mb - -
10:24  -  mph 1019.9mb - -
10:18  -  mph 1020mb - -
10:12  -  mph - 66f -
10:06  -  mph - 66f -
10:00  -  mph - 66f 58f
9:54  -  mph - 66f 59f
9:48 8 10 mph 1020.2mb 66f -
9:42 9 10 mph 1020.2mb 66f -
9:36 8 10 mph 1020.3mb 66f -
9:30  -  mph 1020.2mb - -
9:24  -  mph 1020.3mb - -
9:18  -  mph - 67f 59f
9:12  -  mph - 67f 59f
9:06  -  mph - 67f 59f
9:00  -  mph 1020.3mb 67f -
8:54  -  mph 1020.1mb 67f -
8:48  -  mph 1020mb 67f -
8:42  -  mph 1020mb 67f -
8:36  -  mph 1020.2mb 67f -
8:30  -  mph 1020.3mb - -
8:24  -  mph 1020.3mb - -
8:18  -  mph - 67f 61f
8:12  -  mph - 67f 61f
8:06  -  mph - 67f 61f
8:00  -  mph 1020.4mb 67f 62f
7:54  -  mph 1020.4mb 67f 63f
7:48  -  mph 1020.3mb 67f 63f
7:42  -  mph 1020.3mb 67f -
7:36  -  mph 1020.2mb 67f -
7:30 13 14 mph - - -
7:24 10 13 mph - - -
7:18  -  mph - 67f 65f
7:12  -  mph - 66f 65f
7:06  -  mph - 66f 66f
7:00  -  mph 1019.8mb 66f -
6:54  -  mph 1019.7mb 66f -
6:48  -  mph 1019.5mb 66f -
6:42  -  mph - 66f -
6:36  -  mph - 66f -
6:30 8 14 mph 1019.3mb - -
6:24 11 14 mph 1019.2mb - -
6:18  -  mph - 65f 70f
6:12  -  mph - 65f 70f
6:06  -  mph - 65f 71f
6:00  -  mph - 64f -
5:54  -  mph - 64f -
5:48  -  mph - 64f -
5:42  -  mph - 64f -
5:36  -  mph - 64f -
5:30 10 13 mph 1019.4mb 64f 73f
5:24 9 11 mph 1019.4mb 63f 73f
5:18 7 14 mph 1019.5mb 63f 74f
5:12 9 13 mph 1019.5mb 63f 74f
5:06 8 11 mph 1019.4mb 63f 74f
5:00 7 9 mph 1019.5mb 63f 74f
4:54 8 10 mph 1019.5mb 62f 75f
4:48 8 11 mph 1019.4mb 62f 74f
4:42 6 9 mph 1019.4mb 62f 74f
4:36 8 9 mph 1019.4mb 62f 74f
4:30 7 10 mph 1019.5mb 62f 75f
4:24 7 11 mph 1019.6mb 62f 74f
4:18 9 14 mph 1019.5mb 62f 75f
4:06 13 15 mph 1019.7mb 62f 75f
4:00 13 15 mph 1019.7mb 62f 75f
3:54 10 14 mph 1019.9mb 61f 75f
3:48 9 13 mph 1019.8mb 61f 75f
3:42 7 10 mph 1019.7mb 61f 75f
3:36 9 11 mph 1019.8mb 62f 75f
3:30 6 9 mph 1019.8mb 62f 75f
3:24 6 9 mph 1019.8mb 62f 75f
3:18 7 10 mph 1019.8mb 62f 75f
3:12 3 8 mph 1019.8mb 62f 75f
3:06 6 9 mph 1019.8mb 62f 75f
3:00 6 8 mph 1019.9mb 62f 75f
2:54 6 10 mph 1020mb 62f 75f
2:48 6 10 mph 1020mb 62f 75f
2:42 7 9 mph 1020.1mb 62f 75f
2:36 7 9 mph 1020mb 62f 76f
2:30 3 9 mph 1020mb 62f 75f
2:24 3 9 mph 1020mb 62f 75f
2:18 5 7 mph 1020mb 62f 75f
2:12 3 7 mph 1020mb 62f 75f
2:06 7 9 mph 1020.1mb 62f 75f
2:00 5 6 mph 1020.2mb 62f 75f
1:54 3 10 mph 1020.2mb 62f 75f
1:48 9 11 mph 1020.3mb 62f 74f
1:42 5 7 mph 1020.3mb 62f 75f
1:36 2 7 mph 1020.4mb 62f 75f
1:30 5 7 mph 1020.4mb 62f 77f
1:24 6 10 mph 1020.5mb 62f 76f
1:18 5
mph
1020.5mb 62f 76f
1:12 5 6 mph 1020.6mb 62f 75f
1:06 5 6 mph 1020.7mb 62f 74f
1:00 5 7 mph 1020.8mb 62f 74f
12:54 3 7 mph 1020.9mb 62f 73f
12:48 3 6 mph 1020.9mb 62f 73f
12:42 3 9 mph 1020.9mb 62f 73f
12:36 6 10 mph 1020.8mb 62f 73f
12:30 6 8 mph 1020.8mb 62f 73f
12:24 6 9 mph 1020.9mb 62f 72f
12:18 7 9 mph 1020.9mb 62f 72f
12:12 7 9 mph 1020.9mb 62f 71f
12:06 7 9 mph 1021mb 62f 71f
12:00 6 9 mph 1021mb 63f 71f
11:54 9 13 mph 1021mb 63f 70f
11:48 8 10 mph 1021mb 63f 70f
11:42 8 10 mph 1021.1mb 63f 70f
11:36 5 8 mph 1021.2mb 63f 70f
11:30 6 8 mph 1021.3mb 64f 69f
11:24 8 10 mph 1021.2mb 64f 69f
11:18 7 10 mph 1021.3mb 64f 69f
11:12 6 11 mph 1021.3mb 65f 69f
11:06 9 11 mph 1021.4mb 65f 69f
11:00 9 10 mph 1021.4mb 65f 68f
10:54 7 11 mph 1021.5mb 65f 68f
10:48 8 11 mph 1021.4mb 65f 68f
10:42 10 11 mph 1021.5mb 65f 68f
10:36 8 10 mph 1021.5mb 65f 68f
10:30 9 10 mph 1021.4mb 65f 67f
10:24 10 13 mph 1021.4mb 65f 67f
10:18 10 11 mph 1021.3mb 65f 67f
10:12 10 13 mph 1021.3mb 65f 67f
10:06 10 13 mph 1021.3mb 65f 67f
10:00 8 11 mph 1021.3mb 65f 67f
9:54 9 13 mph 1021.2mb 65f 67f
9:48 10 14 mph 1021.2mb 65f 67f
9:42 9 13 mph 1021.1mb 65f 67f
9:36 10 14 mph 1021.1mb 65f 67f
9:30 11 13 mph 1021mb 65f 68f
9:24 7 11 mph 1021.1mb 65f 68f
9:18 8 11 mph 1021mb 65f 69f
9:12 9 13 mph 1021.1mb 65f 68f
9:06 10 13 mph 1020.9mb 65f 68f
9:00 11 14 mph 1020.9mb 65f 68f
8:54 10 14 mph 1021mb 66f 69f
8:48 8 11 mph 1021mb 66f 68f
8:42 9 13 mph 1020.9mb 66f 68f
8:36 9 13 mph 1020.9mb 66f 68f
8:30 11 13 mph 1020.9mb 66f 68f
8:24 10 13 mph 1020.8mb 66f 68f
8:18 8 10 mph 1020.9mb 66f 68f
8:12 9 10 mph 1020.9mb 66f 68f
8:06 7 13 mph 1020.8mb 66f 68f
8:00 8 10 mph 1020.8mb 66f 68f
7:54 8 10 mph 1020.7mb 66f 67f
7:48 9 11 mph 1020.7mb 66f 67f
7:42 8 11 mph 1020.6mb 66f 68f
7:36 9 10 mph 1020.5mb 66f 67f
7:30 7 10 mph 1020.5mb 66f 67f
7:24 9 11 mph 1020.5mb 66f 67f
7:18 10 11 mph 1020.5mb 66f 67f
7:12 9 11 mph 1020.4mb 66f 67f
7:06 8 10 mph 1020.3mb 66f 68f
7:00 6 9 mph 1020.2mb 66f 68f
6:54 7 11 mph 1020.2mb 66f 67f
6:48 11 14 mph 1020.1mb 66f 68f
6:42 9 10 mph 1020.1mb 66f 68f
6:36 8 9 mph 1020.1mb 66f 67f
6:30 6 8 mph 1020.1mb 66f 67f
6:24 3 7 mph 1020.1mb 66f 67f
6:18 5 6 mph 1020.1mb 66f 67f
6:12 2 3 mph 1020mb 66f 67f
6:06 3 5 mph 1019.8mb 66f 67f
6:00 3 5 mph 1019.8mb 66f 67f
5:54 3 5 mph 1019.6mb 66f 67f
5:48 3
mph
1019.6mb 66f 67f
5:42 3
mph
1019.6mb 66f 67f
5:36 2 3 mph 1019.4mb 66f 67f
5:30 3 5 mph 1019.3mb 66f 67f
5:24 5
mph
1019.2mb 66f 67f
5:18 2 5 mph 1019.3mb 66f 67f
5:12 3
mph
1019.1mb 66f 67f
5:06  -  2 mph 1019mb 66f 67f
5:00 2
mph
1019.1mb 66f 67f
4:54 2 3 mph 1018.9mb 65f 67f
4:48 5 6 mph 1018.9mb 65f 67f
4:42 3
mph
1018.9mb 65f 68f
4:36 3 5 mph 1018.9mb 65f 69f
4:30 2
mph
1018.9mb 65f 69f
4:24 1 2 mph 1018.9mb 65f 69f
4:18 1 5 mph 1018.9mb 65f 69f
4:12 5 6 mph 1018.9mb 65f 69f
4:06 6 7 mph 1018.9mb 65f 69f
4:00 3 5 mph 1018.7mb 65f 70f
3:54 2 3 mph 1018.7mb 65f 71f
3:48 3 6 mph 1018.7mb 64f 71f
3:42 3 5 mph 1018.7mb 64f 71f
3:36 5 6 mph 1018.7mb 64f 71f
3:30 3 6 mph 1018.7mb 64f 71f
3:24 5 6 mph 1018.6mb 64f 71f
3:18 5 7 mph 1018.7mb 64f 71f
3:12 6 7 mph 1018.7mb 64f 72f
3:06 6 7 mph 1018.7mb 64f 72f
3:00 5 7 mph 1018.7mb 64f 72f
2:54 5 7 mph 1018.8mb 64f 72f
2:48 6 8 mph 1018.7mb 64f 72f
2:42 3 8 mph 1018.7mb 64f 72f
2:36 6 9 mph 1018.7mb 64f 72f
2:30 3 8 mph 1018.7mb 64f 72f
2:24 6 8 mph 1018.7mb 64f 72f
2:18 5 8 mph 1018.8mb 64f 73f
2:12 6 10 mph 1018.8mb 64f 73f
2:06 6 8 mph 1018.8mb 63f 73f
2:00 6 8 mph 1018.8mb 63f 73f
1:54 7 8 mph 1018.7mb 63f 73f
1:48  -  mph 1018.7mb 63f 73f
1:42  -  mph 1018.7mb 63f 73f
1:36  -  mph 1018.8mb 63f 73f
1:30 7 9 mph 1018.8mb 63f 74f
1:24 7 9 mph 1018.7mb 63f 74f
1:18 6 9 mph 1018.7mb 63f 74f
1:12 8 9 mph 1018.7mb 63f 74f
1:06 6 8 mph 1018.7mb 63f 74f
1:00 6 8 mph 1018.8mb 63f 74f
12:54 6 7 mph 1018.8mb 63f 74f
12:48 2 5 mph 1018.7mb 63f 74f
12:42 3 6 mph 1018.7mb 63f 75f
12:36 3 6 mph 1018.7mb 63f 75f
12:30 3 7 mph 1018.8mb 63f 75f
12:24 5 7 mph 1018.8mb 63f 76f
12:18 6 9 mph 1018.8mb 63f 76f
12:12 7 10 mph 1018.8mb 63f 76f
12:06 7 8 mph 1018.9mb 62f 76f
12:00 5 8 mph 1018.8mb 62f 76f
sam. 05/28 11:54 5 6 mph 1018.8mb 63f 76f
11:48 6 9 mph 1018.8mb 63f 76f
11:42 6 11 mph 1018.7mb 63f 76f
11:36 8 13 mph 1018.6mb 63f 77f
11:30 6 11 mph 1018.7mb 63f 77f
11:24 7 11 mph 1018.6mb 63f 77f
11:18 5 10 mph 1018.7mb 63f 77f
11:12  -  mph 1018.7mb 63f 77f
11:06  -  mph 1018.7mb 64f 78f
11:00  -  mph 1018.6mb 64f 78f
10:54  -  mph 1018.6mb 64f 78f
10:48  -  mph 1018.6mb 64f 78f
10:42 6 15 mph - 64f -
10:36 8 14 mph - 65f -
10:30 7 13 mph 1018.6mb - -
10:24 7 14 mph 1018.6mb - -
10:18  -  mph 1018.6mb 65f 78f
10:12  -  mph 1018.6mb 65f 75f
10:06  -  mph 1018.6mb 65f 72f
10:00  -  mph 1018.6mb - -
9:54  -  mph 1018.7mb - -
9:48  -  mph 1018.7mb - -
9:42  -  mph - 64f 71f
9:36  -  mph - 64f 71f
9:30 8 9 mph - - -
9:24 7 8 mph - - -
9:18  -  mph 1018.5mb 64f 70f
9:12  -  mph 1018.4mb 64f -
9:06  -  mph 1018.4mb 64f -
9:00  -  mph 1018.4mb - -
8:54  -  mph 1018.4mb - -
8:48  -  mph 1018.4mb - -
8:42  -  mph - 64f -
8:36  -  mph - 64f -
8:30 9 10 mph - - -
8:24 8 9 mph - - -
8:18  -  mph 1018.1mb 65f -
8:12  -  mph 1018.1mb 65f -
8:06  -  mph 1018.1mb 65f -
8:00 9 13 mph - - -
7:54 9 11 mph - - -
7:48 6 13 mph - - -
7:42  -  mph 1017.8mb - -
7:36  -  mph 1017.8mb - -
7:30 8 13 mph 1017.8mb - -
7:24 8 10 mph 1017.8mb - -
7:18  -  mph - 66f 83f
7:12  -  mph - 66f 83f
7:06  -  mph - 66f 83f
7:00 8 14 mph - - -
6:54 8 14 mph - - -
6:48 8 14 mph - - -
6:42 13 16 mph - - -
6:36 9 16 mph - - -
6:30  -  mph 1017.2mb 65f -
6:24  -  mph 1017.1mb 65f -
6:18  -  mph 1017.1mb 65f 86f
6:12  -  mph 1017mb 65f 86f
6:06  -  mph 1017mb 65f 86f
6:00 11 16 mph - - -
5:54 14 21 mph - - -
5:48 13 21 mph - - -
5:42  -  mph 1017mb 65f 87f
5:36  -  mph 1016.9mb 65f 88f
5:30 15 21 mph 1016.9mb 65f 88f
5:24 14 18 mph 1016.9mb 65f 88f
5:18 10 15 mph 1016.8mb 65f 81f
5:12 14 17 mph 1016.7mb 65f 79f
5:06 13 18 mph 1016.7mb 65f 78f
5:00 16 20 mph 1016.8mb 65f 78f
4:54 17 20 mph 1016.7mb 65f 78f
4:48 18 22 mph 1016.6mb 64f 78f
4:42 18 21 mph 1016.6mb 64f 78f
4:36 16 21 mph 1016.5mb 64f 78f
4:30 15 18 mph 1016.5mb 64f 79f
4:24 16 20 mph 1016.6mb 64f 78f
4:18 11 20 mph 1016.5mb 64f 78f
4:12 13 16 mph 1016.5mb 64f 79f
4:06 14 17 mph 1016.5mb 64f 78f
4:00 13 17 mph 1016.5mb 64f 78f
3:54 14 18 mph 1016.5mb 64f 78f
3:48 13 22 mph 1016.6mb 64f 78f
3:42 16 20 mph 1016.6mb 63f 77f
3:36 14 18 mph 1016.8mb 63f 77f
3:30 16 22 mph 1016.8mb 63f 77f
3:24 14 17 mph 1016.9mb 63f 78f
3:18 15 20 mph 1017mb 63f 77f
3:12 14 18 mph 1017mb 63f 77f
3:06 16 20 mph 1017.1mb 63f 77f
3:00 15 20 mph 1017.1mb 63f 77f
2:54 13 20 mph 1017.1mb 63f 78f
2:48 15 17 mph 1017.2mb 63f 78f
2:42 14 18 mph 1017.2mb 63f 78f
2:36 16 20 mph 1017.3mb 63f 78f
2:30 15 21 mph 1017.3mb 62f 78f
2:24 16 20 mph 1017.3mb 62f 78f
2:18 16 20 mph 1017.4mb 62f 78f
2:12 16 18 mph 1017.4mb 62f 78f
2:06 15 20 mph 1017.5mb 62f 78f
2:00 16 21 mph 1017.5mb 62f 77f
1:54 14 20 mph 1017.5mb 62f 78f
1:48 16 20 mph 1017.6mb 62f 77f
1:42 15 21 mph 1017.6mb 62f 76f
1:36 14 21 mph 1017.7mb 62f 76f
1:30 17 21 mph 1017.7mb 62f 76f
1:24 17 21 mph 1017.8mb 62f 75f
1:18 15 18 mph 1017.9mb 62f 76f
1:12 14 17 mph 1017.9mb 62f 75f
1:06 16 20 mph 1018mb 62f 75f
1:00 14 21 mph 1018mb 61f 76f
12:54 17 22 mph 1018.1mb 61f 75f
12:48 18 22 mph 1018.1mb 61f 76f
12:42 17 22 mph 1018.1mb 61f 76f
12:36 14 20 mph 1018.2mb 61f 76f
12:30 15 20 mph 1018.2mb 61f 76f
12:24 16 21 mph 1018.3mb 61f 75f
12:18 16 20 mph 1018.3mb 61f 75f
12:12 13 15 mph 1018.3mb 61f 75f
12:06 13 15 mph 1018.4mb 61f 75f
12:00 11 16 mph 1018.4mb 61f 75f
11:54 14 16 mph 1018.4mb 61f 75f
11:48 15 17 mph 1018.5mb 61f 75f
11:42 16 20 mph 1018.4mb 61f 74f
11:36 14 17 mph 1018.4mb 61f 75f
11:30 17 20 mph 1018.4mb 61f 74f
11:24 15 17 mph 1018.4mb 61f 74f
11:18 15 16 mph 1018.5mb 61f 74f
11:12 14 17 mph 1018.5mb 61f 75f
11:06 15 17 mph 1018.4mb 61f 74f
11:00 15 17 mph 1018.4mb 61f 74f
10:54 16 17 mph 1018.4mb 61f 74f
10:48 13 16 mph 1018.4mb 61f 76f
10:42 14 16 mph 1018.4mb 61f 75f
10:36 13 15 mph 1018.4mb 62f 75f
10:30 10 13 mph 1018.5mb 62f 76f
10:24 9 11 mph 1018.5mb 62f 76f
10:18 10 13 mph 1018.4mb 62f 75f
10:12 10 11 mph 1018.4mb 63f 75f
10:06 11 13 mph 1018.4mb 63f 74f
10:00 9 10 mph 1018.3mb 63f 74f
9:54 9 11 mph 1018.3mb 63f 74f
9:48 10 11 mph 1018.2mb 63f 74f
9:42 10 11 mph 1018.1mb 63f 74f
9:36 9 10 mph 1018.1mb 63f 74f
9:30 7 9 mph 1018.1mb 63f 73f
9:24 7 10 mph 1018.1mb 63f 74f
9:18 8 10 mph 1018.3mb 63f 73f
9:12 6 7 mph 1018.4mb 63f 73f
9:06 7 8 mph 1018.3mb 63f 72f
9:00 7 9 mph 1018.4mb 63f 72f
8:54 2 5 mph 1018.3mb 63f 75f
8:48 3 8 mph 1018.3mb 63f 77f
8:42 3 6 mph 1018.3mb 63f 78f
8:36 2 8 mph 1018.3mb 63f 77f
8:30 6 10 mph 1018.3mb 63f 76f
8:24 6 9 mph 1018.3mb 63f 76f
8:18 6 8 mph 1018.3mb 63f 75f
8:12 5 7 mph 1018.3mb 63f 75f
8:06 3 7 mph 1018.4mb 63f 74f
8:00 2 7 mph 1018.3mb 63f 74f
7:54 5 7 mph 1018.2mb 63f 73f
7:48 5 7 mph 1018.2mb 63f 73f
7:42 5 7 mph 1018.3mb 63f 72f
7:36 5 6 mph 1018.4mb 63f 72f
7:30 5 6 mph 1018.4mb 63f 72f
7:24 2 6 mph 1018.3mb 63f 72f
7:18 2 8 mph 1018.3mb 63f 71f
7:12 5 6 mph 1018.3mb 64f 70f
7:06 2 5 mph 1018.3mb 64f 70f
7:00 3 7 mph 1018.3mb 64f 69f
6:54 6 7 mph 1018.2mb 64f 67f
6:48 6 7 mph 1018.2mb 64f 66f
6:42 6 7 mph 1018.1mb 64f 66f
6:36 6 7 mph 1018.1mb 64f 66f
6:30 3 6 mph 1018mb 64f 66f
6:24 5 7 mph 1018mb 64f 66f
6:18 5 7 mph 1018mb 64f 66f
6:12 6 7 mph 1017.9mb 64f 66f
6:06 5 6 mph 1017.8mb 64f 66f
6:00 5 6 mph 1017.8mb 64f 66f
5:54 6
mph
1017.6mb 64f 66f
5:48 6
mph
1017.5mb 64f 65f
5:42 5 6 mph 1017.5mb 64f 65f
5:36 5 6 mph 1017.4mb 64f 65f
5:30 5 6 mph 1017.5mb 64f 65f
5:24 5 6 mph 1017.4mb 64f 65f
5:18 5 6 mph 1017.5mb 64f 65f
5:12 5 6 mph 1017.5mb 64f 65f
5:06 6 7 mph 1017.4mb 64f 65f
5:00 6 7 mph 1017.4mb 64f 65f
4:54 6 7 mph 1017.4mb 64f 65f
4:48 6 7 mph 1017.4mb 64f 65f
4:42 6 7 mph 1017.4mb 63f 66f
4:36 5 7 mph 1017.4mb 63f 67f
4:30 5 8 mph 1017.3mb 63f 67f
4:24 6 7 mph 1017.2mb 63f 67f
4:18 6 8 mph 1017.2mb 63f 67f
4:12 7 8 mph 1017.2mb 63f 67f
4:06 5 9 mph 1017.2mb 63f 67f
4:00 6 8 mph 1017.2mb 63f 67f
3:54 5 7 mph 1017.3mb 63f 67f
3:48 5 6 mph 1017.3mb 63f 67f
3:42 5 10 mph 1017.2mb 63f 67f
3:36 5 7 mph 1017.2mb 63f 67f
3:30 3 7 mph 1017.2mb 63f 67f
3:24 5 7 mph 1017.2mb 63f 67f
3:18 5 8 mph 1017.2mb 62f 67f
3:12 5 8 mph 1017.2mb 62f 67f
3:06 6 9 mph 1017.2mb 62f 67f
3:00 7 8 mph 1017.2mb 62f 67f
2:54 6 9 mph 1017.3mb 62f 67f
2:48 6 8 mph 1017.4mb 62f 67f
2:42 6 8 mph 1017.5mb 62f 67f
2:36 6 7 mph 1017.4mb 62f 67f
2:30 5 7 mph 1017.4mb 62f 67f
2:24 5 8 mph 1017.4mb 62f 67f
2:18 7 11 mph 1017.3mb 62f 67f
2:12  -  mph 1017.3mb 62f 66f
2:06  -  mph 1017.4mb 62f 68f
2:00  -  mph 1017.3mb 62f 68f
1:54  -  mph 1017.4mb 62f 68f
1:48 6 8 mph 1017.4mb 62f 68f
1:42 6 9 mph 1017.4mb 62f 68f
1:36 6 10 mph 1017.6mb 62f 68f
1:30 7 9 mph 1017.4mb 61f 68f
1:24 6 10 mph 1017.4mb 61f 68f
1:18 6 8 mph 1017.4mb 61f 68f
1:12 5 10 mph 1017.5mb 61f 69f
1:06 6 9 mph 1017.5mb 61f 69f
1:00 6 10 mph 1017.5mb 61f 69f
12:54 7 11 mph 1017.5mb 61f 69f
12:48 7 14 mph 1017.6mb 61f 69f
12:42 7 11 mph 1017.6mb 61f 69f
12:36 9 13 mph 1017.6mb 61f 69f
12:30 9 14 mph 1017.5mb 61f 69f
12:24 8 15 mph 1017.6mb 61f 69f
12:18 7 13 mph 1017.7mb 61f 69f
12:12 7 13 mph 1017.8mb 61f 69f
12:06 7 9 mph 1017.9mb 61f 69f
12:00 7 10 mph 1017.8mb 61f 69f
ven. 05/27 11:54 8 11 mph 1017.7mb 61f 69f
11:48  -  mph 1017.8mb 61f 69f
11:42  -  mph 1017.7mb 61f 69f
11:36  -  mph 1017.7mb 61f 69f
11:30 8 11 mph 1017.6mb 61f 69f
11:24 6 11 mph 1017.5mb 61f 69f
11:18 7 11 mph 1017.5mb 61f 69f
11:12  -  mph 1017.5mb 61f -
11:06  -  mph 1017.4mb 61f -
11:00 11 15 mph 1017.5mb 61f -
10:54 5 11 mph 1017.5mb 61f -
10:48  -  mph - 61f -
10:42  -  mph - 61f -
10:36  -  mph - 61f -
10:30  -  mph 1017.4mb - -
10:24  -  mph 1017.4mb - -
10:18  -  mph 1017.4mb - -
10:12  -  mph 1017.5mb - 70f
10:06  -  mph 1017.5mb - 69f
10:00 7 10 mph 1017.5mb - -
9:54 8 13 mph 1017.5mb - -
9:48 7 11 mph 1017.4mb - -
9:42  -  mph 1017.3mb 62f -
9:36  -  mph 1017.3mb 62f -
9:30 10 15 mph 1017.4mb 62f -
9:24 13 16 mph 1017.3mb 62f -
9:18  -  mph 1017.2mb 62f -
9:12  -  mph 1017mb 62f -
9:06  -  mph 1017.1mb 62f -
9:00 14 17 mph 1017.1mb - -
8:54 13 14 mph 1017.1mb - -
8:48 13 16 mph 1017mb - -
8:42  -  mph 1016.8mb 62f -
8:36  -  mph 1016.7mb 62f -
8:30 14 17 mph 1016.6mb 62f -
8:24 14 16 mph 1016.6mb 62f -
8:18  -  mph - 62f 67f
8:12  -  mph - 62f -
8:06  -  mph - 62f -
8:00  -  mph 1016.4mb 62f -
7:54  -  mph 1016.4mb 62f -
7:48  -  mph 1016.4mb 62f -
7:42  -  mph 1016.5mb 62f -
7:36  -  mph 1016.4mb 62f -
7:30 7 14 mph 1016.4mb 62f -
7:24 11 15 mph 1016.4mb 62f -
7:18  -  mph 1016.4mb 62f 79f
7:12  -  mph 1016.3mb 62f 79f
7:06  -  mph 1016.3mb 63f 79f
7:00 10 15 mph 1016.4mb - -
6:54 11 16 mph 1016.5mb - -
6:48 13 18 mph 1016.5mb - -
6:42 14 20 mph 1016.5mb - -
6:36 13 17 mph 1016.4mb - -
6:30 11 18 mph 1016.4mb 63f -
6:24 13 20 mph 1016.4mb 63f -
6:18  -  mph 1016.3mb 63f -
6:12  -  mph 1016.3mb 63f -
6:06  -  mph 1016.3mb 63f -
6:00  -  mph 1016.2mb - -
5:54  -  mph 1016.2mb - -
5:48  -  mph 1016.2mb 63f -
5:42  -  mph 1016.1mb 63f -
5:36  -  mph 1016.2mb 63f -
5:30 17 21 mph 1016.2mb 63f 71f
5:24 14 22 mph 1016.2mb 63f 71f
5:18 14 21 mph 1016.2mb 63f 72f
5:12 15 17 mph 1016.3mb 63f 73f
5:06 15 21 mph 1016.2mb 63f 73f
5:00 15 20 mph 1016.3mb 62f 73f
4:54 17 20 mph 1016.3mb 62f 73f
4:48 18 21 mph 1016.4mb 62f 73f
4:42 17 21 mph 1016.4mb 62f 73f
4:36 16 20 mph 1016.4mb 62f 73f
4:30 15 20 mph 1016.3mb 62f 74f
4:24 16 20 mph 1016.3mb 62f 73f
4:18 14 18 mph 1016.3mb 62f 73f
4:12 15 21 mph 1016.3mb 62f 72f
4:06 15 18 mph 1016.4mb 62f 71f
4:00 15 20 mph 1016.5mb 62f 71f
3:54 17 21 mph 1016.5mb 62f 70f
3:48 15 18 mph 1016.6mb 62f 70f
3:42 14 17 mph 1016.7mb 62f 71f
3:36 13 17 mph 1016.7mb 62f 70f
3:30 14 17 mph 1016.8mb 61f 70f
3:24 14 18 mph 1016.8mb 61f 70f
3:18 14 20 mph 1016.8mb 61f 70f
3:12 16 18 mph 1016.8mb 61f 70f
3:06 15 18 mph 1017mb 61f 70f
3:00 13 17 mph 1017mb 61f 70f
2:54 14 21 mph 1017.1mb 61f 69f
2:48 15 20 mph 1017.1mb 61f 69f
2:42 15 20 mph 1017mb 61f 69f
2:36 14 18 mph 1017.1mb 61f 69f
2:30 11 17 mph 1017.1mb 60f 69f
2:24 14 17 mph 1017.2mb 60f 69f
2:18 15 18 mph 1017.1mb 60f 69f
2:12 16 20 mph 1017.1mb 60f 69f
2:06 18 21 mph 1017.2mb 60f 69f
2:00 17 21 mph 1017.2mb 60f 69f
1:54 15 20 mph 1017.2mb 60f 70f
1:48 14 17 mph 1017.3mb 60f 70f
1:42 16 20 mph 1017.4mb 60f 70f
1:36 11 15 mph 1017.5mb 60f 70f
1:30 14 17 mph 1017.6mb 60f 70f
1:24 13 16 mph 1017.7mb 60f 70f
1:18 11 16 mph 1017.7mb 60f 70f
1:12 13 17 mph 1017.8mb 60f 70f
1:06 16 18 mph 1017.8mb 60f 70f
1:00 16 18 mph 1017.9mb 60f 71f
12:54 11 14 mph 1018mb 60f 71f
12:48 13 15 mph 1017.9mb 60f 70f
12:42 11 15 mph 1017.9mb 60f 71f
12:36 14 16 mph 1018mb 60f 70f
12:30 10 16 mph 1018mb 60f 71f
12:24 11 16 mph 1018mb 60f 71f
12:18 14 16 mph 1018.1mb 60f 70f
12:12 13 16 mph 1018.2mb 60f 69f
12:06 14 16 mph 1018.2mb 60f 69f
12:00 13 15 mph 1018.2mb 59f 70f
11:54 11 14 mph 1018.3mb 59f 70f
11:48 11 14 mph 1018.3mb 59f 70f
11:42 11 15 mph 1018.2mb 59f 70f
11:36 11 14 mph 1018.2mb 59f 70f
11:30 14 15 mph 1018.2mb 59f 70f
11:24 13 15 mph 1018.3mb 59f 70f
11:18 11
mph
1018.3mb 59f 70f
11:12 9 11 mph 1018.3mb 59f 70f
11:06 9 11 mph 1018.3mb 59f 70f
11:00 10 11 mph 1018.4mb 59f 69f
10:54 9
mph
1018.5mb 59f 68f
10:48 7
mph
1018.7mb 59f 68f
10:42 6 8 mph 1018.8mb 59f 68f
10:36 7
mph
1018.7mb 59f 68f
10:30 8 9 mph 1018.7mb 59f 67f
10:24 7 9 mph 1018.5mb 59f 67f
10:18 7 9 mph 1018.5mb 59f 67f
10:12 8 11 mph 1018.5mb 59f 66f
10:06 9 13 mph 1018.5mb 59f 66f
10:00 7 11 mph 1018.5mb 59f 66f
9:54 9 11 mph 1018.5mb 59f 66f
9:48 8 10 mph 1018.5mb 59f 66f
9:42 7 9 mph 1018.5mb 59f 66f
9:36 7 8 mph 1018.5mb 59f 65f
9:30 6 7 mph 1018.5mb 60f 65f
9:24 6 7 mph 1018.5mb 60f 64f
9:18 7
mph
1018.6mb 60f 64f
9:12 7
mph
1018.5mb 60f 64f
9:06 6 7 mph 1018.6mb 60f 64f
9:00 6 7 mph 1018.7mb 60f 64f
8:54 5 6 mph 1018.6mb 60f 63f
8:48 6 7 mph 1018.5mb 61f 63f
8:42 6 7 mph 1018.4mb 61f 63f
8:36 7
mph
1018.5mb 61f 62f
8:30 6 8 mph 1018.5mb 61f 62f
8:24 6 8 mph 1018.5mb 61f 62f
8:18 6 8 mph 1018.6mb 61f 62f
8:12 8 9 mph 1018.6mb 61f 62f
8:06 7 9 mph 1018.5mb 61f 62f
8:00 8 9 mph 1018.5mb 61f 62f
7:54 7 9 mph 1018.5mb 61f 62f
7:48 7 9 mph 1018.6mb 61f 62f
7:42 9 10 mph 1018.5mb 61f 62f
7:36 9 11 mph 1018.6mb 61f 62f
7:30 7 9 mph 1018.6mb 61f 62f
7:24 6 9 mph 1018.6mb 61f 62f
7:18 6 9 mph 1018.7mb 61f 62f
7:12 6 7 mph 1018.8mb 61f 62f
7:06 6 7 mph 1018.9mb 61f 62f
7:00 7 8 mph 1018.8mb 61f 62f
6:54 7 9 mph 1018.8mb 61f 61f
6:48 7 9 mph 1018.7mb 61f 61f
6:42 7 8 mph 1018.7mb 61f 61f
6:36 7 9 mph 1018.7mb 61f 61f
6:30 6 8 mph 1018.6mb 62f 61f
6:24 5 6 mph 1018.7mb 62f 61f
6:18 6 7 mph 1018.6mb 62f 61f
6:12 8 9 mph 1018.7mb 62f 61f